sensor_id;sensor_type;location;lat;lon;timestamp;P1;durP1;ratioP1;P2;durP2;ratioP2
1759;SDS011;877;46.266;20.062;2023-08-07T00:00:47;3.53;;;1.30;;
1759;SDS011;877;46.266;20.062;2023-08-07T00:03:13;4.00;;;1.10;;
1759;SDS011;877;46.266;20.062;2023-08-07T00:05:46;2.73;;;1.00;;
1759;SDS011;877;46.266;20.062;2023-08-07T00:08:13;3.10;;;1.00;;
1759;SDS011;877;46.266;20.062;2023-08-07T00:10:39;4.83;;;1.13;;
1759;SDS011;877;46.266;20.062;2023-08-07T00:13:05;2.60;;;1.10;;
1759;SDS011;877;46.266;20.062;2023-08-07T00:15:31;2.97;;;1.27;;
1759;SDS011;877;46.266;20.062;2023-08-07T00:17:58;2.37;;;1.03;;
1759;SDS011;877;46.266;20.062;2023-08-07T00:20:25;2.40;;;1.00;;
1759;SDS011;877;46.266;20.062;2023-08-07T00:22:51;3.20;;;1.20;;
1759;SDS011;877;46.266;20.062;2023-08-07T00:25:17;7.60;;;1.10;;
1759;SDS011;877;46.266;20.062;2023-08-07T00:27:43;2.53;;;1.10;;
1759;SDS011;877;46.266;20.062;2023-08-07T00:30:09;2.63;;;1.03;;
1759;SDS011;877;46.266;20.062;2023-08-07T00:32:35;4.60;;;1.50;;
1759;SDS011;877;46.266;20.062;2023-08-07T00:35:01;2.03;;;0.87;;
1759;SDS011;877;46.266;20.062;2023-08-07T00:37:26;2.87;;;0.90;;
1759;SDS011;877;46.266;20.062;2023-08-07T00:39:52;4.43;;;1.27;;
1759;SDS011;877;46.266;20.062;2023-08-07T00:42:18;3.43;;;1.00;;
1759;SDS011;877;46.266;20.062;2023-08-07T00:44:44;2.73;;;1.07;;
1759;SDS011;877;46.266;20.062;2023-08-07T00:47:10;2.70;;;0.90;;
1759;SDS011;877;46.266;20.062;2023-08-07T00:49:36;2.20;;;0.90;;
1759;SDS011;877;46.266;20.062;2023-08-07T00:52:02;2.40;;;1.07;;
1759;SDS011;877;46.266;20.062;2023-08-07T00:54:28;3.57;;;1.20;;
1759;SDS011;877;46.266;20.062;2023-08-07T00:56:54;3.13;;;1.10;;
1759;SDS011;877;46.266;20.062;2023-08-07T00:59:22;2.20;;;1.00;;
1759;SDS011;877;46.266;20.062;2023-08-07T01:01:48;2.50;;;0.90;;
1759;SDS011;877;46.266;20.062;2023-08-07T01:04:14;2.73;;;1.00;;
1759;SDS011;877;46.266;20.062;2023-08-07T01:06:40;2.17;;;0.70;;
1759;SDS011;877;46.266;20.062;2023-08-07T01:09:06;2.03;;;0.80;;
1759;SDS011;877;46.266;20.062;2023-08-07T01:11:46;3.40;;;0.83;;
1759;SDS011;877;46.266;20.062;2023-08-07T01:14:25;2.40;;;1.10;;
1759;SDS011;877;46.266;20.062;2023-08-07T01:19:31;3.00;;;0.90;;
1759;SDS011;877;46.266;20.062;2023-08-07T01:24:38;4.60;;;1.27;;
1759;SDS011;877;46.266;20.062;2023-08-07T01:27:09;2.70;;;0.90;;
1759;SDS011;877;46.266;20.062;2023-08-07T01:29:53;2.83;;;1.00;;
1759;SDS011;877;46.266;20.062;2023-08-07T01:35:16;2.30;;;0.90;;
1759;SDS011;877;46.266;20.062;2023-08-07T01:37:45;2.47;;;0.90;;
1759;SDS011;877;46.266;20.062;2023-08-07T01:40:13;2.30;;;1.00;;
1759;SDS011;877;46.266;20.062;2023-08-07T01:42:40;2.10;;;0.80;;
1759;SDS011;877;46.266;20.062;2023-08-07T01:45:07;2.73;;;0.80;;
1759;SDS011;877;46.266;20.062;2023-08-07T01:47:33;2.37;;;0.90;;
1759;SDS011;877;46.266;20.062;2023-08-07T01:49:59;3.93;;;1.07;;
1759;SDS011;877;46.266;20.062;2023-08-07T01:52:25;3.17;;;1.00;;
1759;SDS011;877;46.266;20.062;2023-08-07T01:54:51;2.10;;;0.80;;
1759;SDS011;877;46.266;20.062;2023-08-07T01:57:17;2.00;;;0.70;;
1759;SDS011;877;46.266;20.062;2023-08-07T01:59:42;2.70;;;0.90;;
1759;SDS011;877;46.266;20.062;2023-08-07T02:02:10;2.50;;;0.80;;
1759;SDS011;877;46.266;20.062;2023-08-07T02:04:35;2.50;;;0.80;;
1759;SDS011;877;46.266;20.062;2023-08-07T02:07:01;3.23;;;1.00;;
1759;SDS011;877;46.266;20.062;2023-08-07T02:09:27;2.30;;;0.90;;
1759;SDS011;877;46.266;20.062;2023-08-07T02:11:53;4.80;;;1.17;;
1759;SDS011;877;46.266;20.062;2023-08-07T02:14:19;3.37;;;1.17;;
1759;SDS011;877;46.266;20.062;2023-08-07T02:16:44;3.43;;;1.40;;
1759;SDS011;877;46.266;20.062;2023-08-07T02:19:10;2.10;;;0.70;;
1759;SDS011;877;46.266;20.062;2023-08-07T02:21:36;2.73;;;1.73;;
1759;SDS011;877;46.266;20.062;2023-08-07T02:24:02;2.53;;;0.80;;
1759;SDS011;877;46.266;20.062;2023-08-07T02:26:28;7.00;;;1.00;;
1759;SDS011;877;46.266;20.062;2023-08-07T02:28:54;3.37;;;1.00;;
1759;SDS011;877;46.266;20.062;2023-08-07T02:31:19;2.20;;;0.80;;
1759;SDS011;877;46.266;20.062;2023-08-07T02:33:45;2.07;;;0.70;;
1759;SDS011;877;46.266;20.062;2023-08-07T02:36:11;2.30;;;0.90;;
1759;SDS011;877;46.266;20.062;2023-08-07T02:38:37;2.37;;;0.87;;
1759;SDS011;877;46.266;20.062;2023-08-07T02:41:03;2.23;;;0.90;;
1759;SDS011;877;46.266;20.062;2023-08-07T02:43:29;3.17;;;0.87;;
1759;SDS011;877;46.266;20.062;2023-08-07T02:45:58;2.27;;;0.90;;
1759;SDS011;877;46.266;20.062;2023-08-07T02:48:24;2.10;;;0.90;;
1759;SDS011;877;46.266;20.062;2023-08-07T02:50:49;2.30;;;0.90;;
1759;SDS011;877;46.266;20.062;2023-08-07T02:53:16;2.20;;;0.83;;
1759;SDS011;877;46.266;20.062;2023-08-07T02:55:43;2.80;;;1.00;;
1759;SDS011;877;46.266;20.062;2023-08-07T02:58:09;2.20;;;0.90;;
1759;SDS011;877;46.266;20.062;2023-08-07T03:00:35;2.70;;;0.80;;
1759;SDS011;877;46.266;20.062;2023-08-07T03:03:01;2.73;;;0.90;;
1759;SDS011;877;46.266;20.062;2023-08-07T03:05:27;3.30;;;1.00;;
1759;SDS011;877;46.266;20.062;2023-08-07T03:07:52;2.53;;;0.77;;
1759;SDS011;877;46.266;20.062;2023-08-07T03:10:18;2.30;;;0.80;;
1759;SDS011;877;46.266;20.062;2023-08-07T03:12:44;3.07;;;0.90;;
1759;SDS011;877;46.266;20.062;2023-08-07T03:15:10;2.20;;;0.90;;
1759;SDS011;877;46.266;20.062;2023-08-07T03:17:36;2.00;;;0.70;;
1759;SDS011;877;46.266;20.062;2023-08-07T03:20:02;2.37;;;0.90;;
1759;SDS011;877;46.266;20.062;2023-08-07T03:22:29;2.60;;;0.80;;
1759;SDS011;877;46.266;20.062;2023-08-07T03:24:55;2.30;;;0.93;;
1759;SDS011;877;46.266;20.062;2023-08-07T03:27:20;4.00;;;1.20;;
1759;SDS011;877;46.266;20.062;2023-08-07T03:29:46;2.90;;;1.20;;
1759;SDS011;877;46.266;20.062;2023-08-07T03:32:12;2.90;;;1.00;;
1759;SDS011;877;46.266;20.062;2023-08-07T03:34:38;2.80;;;1.10;;
1759;SDS011;877;46.266;20.062;2023-08-07T03:37:04;3.50;;;1.17;;
1759;SDS011;877;46.266;20.062;2023-08-07T03:39:29;3.27;;;1.10;;
1759;SDS011;877;46.266;20.062;2023-08-07T03:41:55;2.83;;;1.30;;
1759;SDS011;877;46.266;20.062;2023-08-07T03:44:21;2.73;;;1.33;;
1759;SDS011;877;46.266;20.062;2023-08-07T03:46:47;2.70;;;1.43;;
1759;SDS011;877;46.266;20.062;2023-08-07T03:49:13;3.50;;;1.50;;
1759;SDS011;877;46.266;20.062;2023-08-07T03:51:39;2.50;;;1.20;;
1759;SDS011;877;46.266;20.062;2023-08-07T03:54:05;3.37;;;1.60;;
1759;SDS011;877;46.266;20.062;2023-08-07T03:56:31;2.47;;;1.10;;
1759;SDS011;877;46.266;20.062;2023-08-07T03:59:01;2.80;;;1.10;;
1759;SDS011;877;46.266;20.062;2023-08-07T04:01:27;2.00;;;0.70;;
1759;SDS011;877;46.266;20.062;2023-08-07T04:03:53;2.93;;;1.07;;
1759;SDS011;877;46.266;20.062;2023-08-07T04:06:19;2.27;;;0.87;;
1759;SDS011;877;46.266;20.062;2023-08-07T04:08:46;2.73;;;1.47;;
1759;SDS011;877;46.266;20.062;2023-08-07T04:11:12;2.37;;;0.90;;
1759;SDS011;877;46.266;20.062;2023-08-07T04:13:38;8.40;;;6.10;;
1759;SDS011;877;46.266;20.062;2023-08-07T04:16:04;31.87;;;24.73;;
1759;SDS011;877;46.266;20.062;2023-08-07T04:18:30;25.37;;;22.07;;
1759;SDS011;877;46.266;20.062;2023-08-07T04:20:57;11.80;;;6.83;;
1759;SDS011;877;46.266;20.062;2023-08-07T04:23:23;5.53;;;3.30;;
1759;SDS011;877;46.266;20.062;2023-08-07T04:25:49;7.13;;;3.70;;
1759;SDS011;877;46.266;20.062;2023-08-07T04:28:17;7.30;;;3.73;;
1759;SDS011;877;46.266;20.062;2023-08-07T04:30:43;2.90;;;2.00;;
1759;SDS011;877;46.266;20.062;2023-08-07T04:33:09;4.00;;;2.53;;
1759;SDS011;877;46.266;20.062;2023-08-07T04:35:35;3.47;;;1.60;;
1759;SDS011;877;46.266;20.062;2023-08-07T04:38:02;2.60;;;1.03;;
1759;SDS011;877;46.266;20.062;2023-08-07T04:40:28;2.50;;;1.27;;
1759;SDS011;877;46.266;20.062;2023-08-07T04:42:54;2.20;;;1.00;;
1759;SDS011;877;46.266;20.062;2023-08-07T04:45:20;2.70;;;0.93;;
1759;SDS011;877;46.266;20.062;2023-08-07T04:47:46;2.77;;;1.00;;
1759;SDS011;877;46.266;20.062;2023-08-07T04:50:12;5.03;;;1.00;;
1759;SDS011;877;46.266;20.062;2023-08-07T04:52:37;3.63;;;1.13;;
1759;SDS011;877;46.266;20.062;2023-08-07T04:55:04;3.57;;;1.07;;
1759;SDS011;877;46.266;20.062;2023-08-07T04:57:30;2.57;;;1.13;;
1759;SDS011;877;46.266;20.062;2023-08-07T04:59:56;3.67;;;1.70;;
1759;SDS011;877;46.266;20.062;2023-08-07T05:02:21;2.67;;;1.43;;
1759;SDS011;877;46.266;20.062;2023-08-07T05:04:47;18.03;;;2.07;;
1759;SDS011;877;46.266;20.062;2023-08-07T05:07:13;3.03;;;1.80;;
1759;SDS011;877;46.266;20.062;2023-08-07T05:09:40;2.97;;;1.10;;
1759;SDS011;877;46.266;20.062;2023-08-07T05:12:06;2.40;;;1.00;;
1759;SDS011;877;46.266;20.062;2023-08-07T05:14:32;2.77;;;0.80;;
1759;SDS011;877;46.266;20.062;2023-08-07T05:16:58;2.23;;;0.97;;
1759;SDS011;877;46.266;20.062;2023-08-07T05:19:27;3.83;;;1.43;;
1759;SDS011;877;46.266;20.062;2023-08-07T05:21:53;3.17;;;1.50;;
1759;SDS011;877;46.266;20.062;2023-08-07T05:24:18;6.10;;;2.20;;
1759;SDS011;877;46.266;20.062;2023-08-07T05:26:44;4.37;;;2.30;;
1759;SDS011;877;46.266;20.062;2023-08-07T05:29:10;4.17;;;2.00;;
1759;SDS011;877;46.266;20.062;2023-08-07T05:31:36;3.70;;;1.00;;
1759;SDS011;877;46.266;20.062;2023-08-07T05:34:02;3.03;;;1.40;;
1759;SDS011;877;46.266;20.062;2023-08-07T05:36:28;2.73;;;1.20;;
1759;SDS011;877;46.266;20.062;2023-08-07T05:38:56;3.50;;;1.50;;
1759;SDS011;877;46.266;20.062;2023-08-07T05:41:22;2.77;;;1.10;;
1759;SDS011;877;46.266;20.062;2023-08-07T05:43:48;2.93;;;1.10;;
1759;SDS011;877;46.266;20.062;2023-08-07T05:46:14;2.67;;;1.10;;
1759;SDS011;877;46.266;20.062;2023-08-07T05:48:40;3.30;;;1.37;;
1759;SDS011;877;46.266;20.062;2023-08-07T05:51:06;3.80;;;1.40;;
1759;SDS011;877;46.266;20.062;2023-08-07T05:53:32;2.87;;;0.90;;
1759;SDS011;877;46.266;20.062;2023-08-07T05:56:00;2.57;;;1.00;;
1759;SDS011;877;46.266;20.062;2023-08-07T05:58:26;2.40;;;0.83;;
1759;SDS011;877;46.266;20.062;2023-08-07T06:00:52;2.10;;;0.70;;
1759;SDS011;877;46.266;20.062;2023-08-07T06:03:17;2.60;;;0.90;;
1759;SDS011;877;46.266;20.062;2023-08-07T06:05:43;5.57;;;1.30;;
1759;SDS011;877;46.266;20.062;2023-08-07T06:08:09;2.73;;;1.17;;
1759;SDS011;877;46.266;20.062;2023-08-07T06:10:35;1.97;;;0.70;;
1759;SDS011;877;46.266;20.062;2023-08-07T06:13:01;4.73;;;0.80;;
1759;SDS011;877;46.266;20.062;2023-08-07T06:15:29;2.20;;;0.80;;
1759;SDS011;877;46.266;20.062;2023-08-07T06:17:56;2.43;;;0.90;;
1759;SDS011;877;46.266;20.062;2023-08-07T06:20:23;2.70;;;1.00;;
1759;SDS011;877;46.266;20.062;2023-08-07T06:22:48;3.03;;;1.00;;
1759;SDS011;877;46.266;20.062;2023-08-07T06:25:14;2.60;;;1.07;;
1759;SDS011;877;46.266;20.062;2023-08-07T06:27:40;3.90;;;1.17;;
1759;SDS011;877;46.266;20.062;2023-08-07T06:30:06;2.40;;;0.90;;
1759;SDS011;877;46.266;20.062;2023-08-07T06:32:32;2.60;;;1.10;;
1759;SDS011;877;46.266;20.062;2023-08-07T06:34:58;2.30;;;0.90;;
1759;SDS011;877;46.266;20.062;2023-08-07T06:37:24;2.43;;;0.90;;
1759;SDS011;877;46.266;20.062;2023-08-07T06:39:49;3.90;;;1.13;;
1759;SDS011;877;46.266;20.062;2023-08-07T06:42:16;2.87;;;1.20;;
1759;SDS011;877;46.266;20.062;2023-08-07T06:44:41;2.63;;;1.20;;
1759;SDS011;877;46.266;20.062;2023-08-07T06:47:07;2.60;;;1.10;;
1759;SDS011;877;46.266;20.062;2023-08-07T06:49:34;2.50;;;1.20;;
1759;SDS011;877;46.266;20.062;2023-08-07T06:52:00;4.10;;;1.00;;
1759;SDS011;877;46.266;20.062;2023-08-07T06:54:25;2.67;;;0.90;;
1759;SDS011;877;46.266;20.062;2023-08-07T06:56:51;2.70;;;1.03;;
1759;SDS011;877;46.266;20.062;2023-08-07T06:59:17;2.83;;;0.93;;
1759;SDS011;877;46.266;20.062;2023-08-07T07:01:43;2.63;;;1.00;;
1759;SDS011;877;46.266;20.062;2023-08-07T07:04:09;3.70;;;0.90;;
1759;SDS011;877;46.266;20.062;2023-08-07T07:06:37;2.57;;;1.00;;
1759;SDS011;877;46.266;20.062;2023-08-07T07:09:03;3.17;;;1.10;;
1759;SDS011;877;46.266;20.062;2023-08-07T07:11:28;2.60;;;0.90;;
1759;SDS011;877;46.266;20.062;2023-08-07T07:13:54;2.40;;;1.10;;
1759;SDS011;877;46.266;20.062;2023-08-07T07:16:20;2.93;;;0.87;;
1759;SDS011;877;46.266;20.062;2023-08-07T07:18:49;2.30;;;0.93;;
1759;SDS011;877;46.266;20.062;2023-08-07T07:21:16;2.40;;;1.00;;
1759;SDS011;877;46.266;20.062;2023-08-07T07:23:42;2.40;;;0.83;;
1759;SDS011;877;46.266;20.062;2023-08-07T07:26:09;3.13;;;0.97;;
1759;SDS011;877;46.266;20.062;2023-08-07T07:28:35;2.73;;;0.80;;
1759;SDS011;877;46.266;20.062;2023-08-07T07:31:01;2.00;;;0.60;;
1759;SDS011;877;46.266;20.062;2023-08-07T07:33:28;2.30;;;0.70;;
1759;SDS011;877;46.266;20.062;2023-08-07T07:35:54;3.07;;;0.97;;
1759;SDS011;877;46.266;20.062;2023-08-07T07:38:20;5.20;;;0.80;;
1759;SDS011;877;46.266;20.062;2023-08-07T07:40:47;2.10;;;0.70;;
1759;SDS011;877;46.266;20.062;2023-08-07T07:43:15;2.33;;;0.70;;
1759;SDS011;877;46.266;20.062;2023-08-07T07:45:41;2.20;;;0.77;;
1759;SDS011;877;46.266;20.062;2023-08-07T07:48:09;2.93;;;1.00;;
1759;SDS011;877;46.266;20.062;2023-08-07T07:50:35;2.10;;;0.80;;
1759;SDS011;877;46.266;20.062;2023-08-07T07:53:01;2.83;;;0.70;;
1759;SDS011;877;46.266;20.062;2023-08-07T07:55:27;2.00;;;0.80;;
1759;SDS011;877;46.266;20.062;2023-08-07T07:57:53;2.70;;;0.80;;
1759;SDS011;877;46.266;20.062;2023-08-07T08:00:20;2.90;;;0.83;;
1759;SDS011;877;46.266;20.062;2023-08-07T08:02:51;2.30;;;0.70;;
1759;SDS011;877;46.266;20.062;2023-08-07T08:05:17;2.57;;;0.80;;
1759;SDS011;877;46.266;20.062;2023-08-07T08:07:43;2.47;;;0.70;;
1759;SDS011;877;46.266;20.062;2023-08-07T08:10:09;2.10;;;0.80;;
1759;SDS011;877;46.266;20.062;2023-08-07T08:12:35;5.80;;;1.00;;
1759;SDS011;877;46.266;20.062;2023-08-07T08:15:02;2.20;;;0.60;;
1759;SDS011;877;46.266;20.062;2023-08-07T08:17:29;2.10;;;0.70;;
1759;SDS011;877;46.266;20.062;2023-08-07T08:19:55;2.40;;;0.70;;
1759;SDS011;877;46.266;20.062;2023-08-07T08:22:20;2.60;;;0.70;;
1759;SDS011;877;46.266;20.062;2023-08-07T08:24:46;2.00;;;0.60;;
1759;SDS011;877;46.266;20.062;2023-08-07T08:27:13;2.37;;;0.67;;
1759;SDS011;877;46.266;20.062;2023-08-07T08:29:38;2.33;;;0.70;;
1759;SDS011;877;46.266;20.062;2023-08-07T08:32:06;1.90;;;0.60;;
1759;SDS011;877;46.266;20.062;2023-08-07T08:34:32;2.90;;;0.70;;
1759;SDS011;877;46.266;20.062;2023-08-07T08:36:58;2.67;;;0.70;;
1759;SDS011;877;46.266;20.062;2023-08-07T08:39:24;2.20;;;0.70;;
1759;SDS011;877;46.266;20.062;2023-08-07T08:41:49;2.00;;;0.63;;
1759;SDS011;877;46.266;20.062;2023-08-07T08:44:16;2.20;;;0.70;;
1759;SDS011;877;46.266;20.062;2023-08-07T08:46:44;2.53;;;0.60;;
1759;SDS011;877;46.266;20.062;2023-08-07T08:49:12;2.73;;;0.87;;
1759;SDS011;877;46.266;20.062;2023-08-07T08:51:46;3.03;;;1.10;;
1759;SDS011;877;46.266;20.062;2023-08-07T08:54:12;2.40;;;0.77;;
1759;SDS011;877;46.266;20.062;2023-08-07T08:56:38;1.97;;;0.70;;
1759;SDS011;877;46.266;20.062;2023-08-07T08:59:04;2.33;;;0.60;;
1759;SDS011;877;46.266;20.062;2023-08-07T09:01:30;2.10;;;0.70;;
1759;SDS011;877;46.266;20.062;2023-08-07T09:03:57;2.07;;;0.80;;
1759;SDS011;877;46.266;20.062;2023-08-07T09:06:25;2.53;;;0.83;;
1759;SDS011;877;46.266;20.062;2023-08-07T09:08:52;2.43;;;0.87;;
1759;SDS011;877;46.266;20.062;2023-08-07T09:11:19;2.97;;;0.70;;
1759;SDS011;877;46.266;20.062;2023-08-07T09:13:46;2.40;;;0.60;;
1759;SDS011;877;46.266;20.062;2023-08-07T09:16:13;2.60;;;0.70;;
1759;SDS011;877;46.266;20.062;2023-08-07T09:18:41;19.63;;;0.93;;
1759;SDS011;877;46.266;20.062;2023-08-07T09:21:08;1.90;;;0.60;;
1759;SDS011;877;46.266;20.062;2023-08-07T09:23:34;3.73;;;0.70;;
1759;SDS011;877;46.266;20.062;2023-08-07T09:26:01;4.27;;;0.90;;
1759;SDS011;877;46.266;20.062;2023-08-07T09:28:31;1.90;;;0.70;;
1759;SDS011;877;46.266;20.062;2023-08-07T09:31:00;1.90;;;0.60;;
1759;SDS011;877;46.266;20.062;2023-08-07T09:33:29;2.00;;;0.70;;
1759;SDS011;877;46.266;20.062;2023-08-07T09:35:58;2.00;;;0.60;;
1759;SDS011;877;46.266;20.062;2023-08-07T09:38:28;1.90;;;0.50;;
1759;SDS011;877;46.266;20.062;2023-08-07T09:40:58;1.90;;;0.50;;
1759;SDS011;877;46.266;20.062;2023-08-07T09:43:29;2.30;;;0.70;;
1759;SDS011;877;46.266;20.062;2023-08-07T09:46:07;1.80;;;0.60;;
1759;SDS011;877;46.266;20.062;2023-08-07T09:48:40;1.87;;;0.50;;
1759;SDS011;877;46.266;20.062;2023-08-07T09:51:06;2.10;;;0.70;;
1759;SDS011;877;46.266;20.062;2023-08-07T09:53:32;2.00;;;0.70;;
1759;SDS011;877;46.266;20.062;2023-08-07T09:55:58;2.77;;;0.60;;
1759;SDS011;877;46.266;20.062;2023-08-07T09:58:25;1.83;;;0.50;;
1759;SDS011;877;46.266;20.062;2023-08-07T10:00:51;2.30;;;0.77;;
1759;SDS011;877;46.266;20.062;2023-08-07T10:03:24;2.23;;;0.50;;
1759;SDS011;877;46.266;20.062;2023-08-07T10:05:50;2.97;;;0.77;;
1759;SDS011;877;46.266;20.062;2023-08-07T10:08:17;3.33;;;0.70;;
1759;SDS011;877;46.266;20.062;2023-08-07T10:10:43;2.10;;;0.60;;
1759;SDS011;877;46.266;20.062;2023-08-07T10:13:14;2.50;;;0.87;;
1759;SDS011;877;46.266;20.062;2023-08-07T10:15:40;2.80;;;0.80;;
1759;SDS011;877;46.266;20.062;2023-08-07T10:18:09;2.00;;;0.70;;
1759;SDS011;877;46.266;20.062;2023-08-07T10:20:35;2.47;;;0.70;;
1759;SDS011;877;46.266;20.062;2023-08-07T10:23:08;2.30;;;0.73;;
1759;SDS011;877;46.266;20.062;2023-08-07T10:25:37;2.73;;;0.70;;
1759;SDS011;877;46.266;20.062;2023-08-07T10:28:08;2.00;;;0.70;;
1759;SDS011;877;46.266;20.062;2023-08-07T10:30:37;2.20;;;0.80;;
1759;SDS011;877;46.266;20.062;2023-08-07T10:33:05;2.10;;;0.70;;
1759;SDS011;877;46.266;20.062;2023-08-07T10:35:33;2.63;;;0.70;;
1759;SDS011;877;46.266;20.062;2023-08-07T10:38:08;2.73;;;0.70;;
1759;SDS011;877;46.266;20.062;2023-08-07T10:43:28;2.87;;;0.80;;
1759;SDS011;877;46.266;20.062;2023-08-07T10:46:05;2.00;;;0.60;;
1759;SDS011;877;46.266;20.062;2023-08-07T10:48:38;2.00;;;0.60;;
1759;SDS011;877;46.266;20.062;2023-08-07T10:51:08;2.63;;;0.70;;
1759;SDS011;877;46.266;20.062;2023-08-07T10:53:42;2.17;;;0.60;;
1759;SDS011;877;46.266;20.062;2023-08-07T10:56:11;1.90;;;0.53;;
1759;SDS011;877;46.266;20.062;2023-08-07T10:58:54;3.17;;;0.83;;
1759;SDS011;877;46.266;20.062;2023-08-07T11:01:40;3.67;;;0.60;;
1759;SDS011;877;46.266;20.062;2023-08-07T11:04:09;1.73;;;0.53;;
1759;SDS011;877;46.266;20.062;2023-08-07T11:06:37;2.03;;;0.57;;
1759;SDS011;877;46.266;20.062;2023-08-07T11:09:04;2.80;;;0.60;;
1759;SDS011;877;46.266;20.062;2023-08-07T11:11:36;1.90;;;0.53;;
1759;SDS011;877;46.266;20.062;2023-08-07T11:14:12;1.80;;;0.50;;
1759;SDS011;877;46.266;20.062;2023-08-07T11:16:40;1.80;;;0.60;;
1759;SDS011;877;46.266;20.062;2023-08-07T11:19:07;1.90;;;0.57;;
1759;SDS011;877;46.266;20.062;2023-08-07T11:21:34;1.90;;;0.60;;
1759;SDS011;877;46.266;20.062;2023-08-07T11:24:01;1.80;;;0.50;;
1759;SDS011;877;46.266;20.062;2023-08-07T11:26:27;1.90;;;0.60;;
1759;SDS011;877;46.266;20.062;2023-08-07T11:28:53;1.80;;;0.50;;
1759;SDS011;877;46.266;20.062;2023-08-07T11:31:19;1.80;;;0.60;;
1759;SDS011;877;46.266;20.062;2023-08-07T11:33:46;1.80;;;0.50;;
1759;SDS011;877;46.266;20.062;2023-08-07T11:36:15;1.87;;;0.60;;
1759;SDS011;877;46.266;20.062;2023-08-07T11:38:41;3.43;;;0.70;;
1759;SDS011;877;46.266;20.062;2023-08-07T11:41:11;3.13;;;0.90;;
1759;SDS011;877;46.266;20.062;2023-08-07T11:43:38;1.90;;;0.60;;
1759;SDS011;877;46.266;20.062;2023-08-07T11:46:05;1.80;;;0.60;;
1759;SDS011;877;46.266;20.062;2023-08-07T11:48:33;2.00;;;0.70;;
1759;SDS011;877;46.266;20.062;2023-08-07T11:51:01;2.73;;;0.70;;
1759;SDS011;877;46.266;20.062;2023-08-07T11:53:28;2.37;;;0.67;;
1759;SDS011;877;46.266;20.062;2023-08-07T11:55:59;1.87;;;0.50;;
1759;SDS011;877;46.266;20.062;2023-08-07T11:58:27;1.90;;;0.60;;
1759;SDS011;877;46.266;20.062;2023-08-07T12:01:04;3.00;;;0.60;;
1759;SDS011;877;46.266;20.062;2023-08-07T12:03:32;2.83;;;0.70;;
1759;SDS011;877;46.266;20.062;2023-08-07T12:06:02;1.80;;;0.50;;
1759;SDS011;877;46.266;20.062;2023-08-07T12:08:36;1.90;;;0.70;;
1759;SDS011;877;46.266;20.062;2023-08-07T12:11:06;1.80;;;0.60;;
1759;SDS011;877;46.266;20.062;2023-08-07T12:13:36;1.87;;;0.50;;
1759;SDS011;877;46.266;20.062;2023-08-07T12:16:06;2.63;;;1.00;;
1759;SDS011;877;46.266;20.062;2023-08-07T12:18:32;2.20;;;0.60;;
1759;SDS011;877;46.266;20.062;2023-08-07T12:21:02;2.20;;;0.60;;
1759;SDS011;877;46.266;20.062;2023-08-07T12:23:32;1.80;;;0.50;;
1759;SDS011;877;46.266;20.062;2023-08-07T12:25:58;2.43;;;0.63;;
1759;SDS011;877;46.266;20.062;2023-08-07T12:28:24;2.87;;;0.70;;
1759;SDS011;877;46.266;20.062;2023-08-07T12:30:51;2.00;;;0.60;;
1759;SDS011;877;46.266;20.062;2023-08-07T12:33:17;2.00;;;0.60;;
1759;SDS011;877;46.266;20.062;2023-08-07T12:35:43;2.10;;;0.60;;
1759;SDS011;877;46.266;20.062;2023-08-07T12:38:09;4.90;;;0.73;;
1759;SDS011;877;46.266;20.062;2023-08-07T12:40:36;2.00;;;0.67;;
1759;SDS011;877;46.266;20.062;2023-08-07T12:43:02;3.03;;;0.80;;
1759;SDS011;877;46.266;20.062;2023-08-07T12:45:31;2.30;;;0.77;;
1759;SDS011;877;46.266;20.062;2023-08-07T12:47:58;4.53;;;0.70;;
1759;SDS011;877;46.266;20.062;2023-08-07T12:50:24;2.57;;;0.80;;
1759;SDS011;877;46.266;20.062;2023-08-07T12:52:51;2.40;;;0.70;;
1759;SDS011;877;46.266;20.062;2023-08-07T12:55:17;3.47;;;1.27;;
1759;SDS011;877;46.266;20.062;2023-08-07T12:57:43;2.20;;;0.80;;
1759;SDS011;877;46.266;20.062;2023-08-07T13:00:10;2.10;;;0.80;;
1759;SDS011;877;46.266;20.062;2023-08-07T13:02:42;2.10;;;0.70;;
1759;SDS011;877;46.266;20.062;2023-08-07T13:05:13;2.40;;;0.80;;
1759;SDS011;877;46.266;20.062;2023-08-07T13:07:40;2.00;;;0.60;;
1759;SDS011;877;46.266;20.062;2023-08-07T13:10:06;2.20;;;0.80;;
1759;SDS011;877;46.266;20.062;2023-08-07T13:12:36;4.30;;;0.83;;
1759;SDS011;877;46.266;20.062;2023-08-07T13:15:04;2.20;;;0.70;;
1759;SDS011;877;46.266;20.062;2023-08-07T13:17:31;4.67;;;0.90;;
1759;SDS011;877;46.266;20.062;2023-08-07T13:19:58;2.80;;;0.70;;
1759;SDS011;877;46.266;20.062;2023-08-07T13:22:25;2.53;;;0.70;;
1759;SDS011;877;46.266;20.062;2023-08-07T13:24:51;2.10;;;0.80;;
1759;SDS011;877;46.266;20.062;2023-08-07T13:27:16;1.90;;;0.60;;
1759;SDS011;877;46.266;20.062;2023-08-07T13:29:43;2.80;;;0.80;;
1759;SDS011;877;46.266;20.062;2023-08-07T13:32:09;3.33;;;0.97;;
1759;SDS011;877;46.266;20.062;2023-08-07T13:34:35;2.33;;;0.80;;
1759;SDS011;877;46.266;20.062;2023-08-07T13:37:02;2.47;;;1.03;;
1759;SDS011;877;46.266;20.062;2023-08-07T13:39:29;4.07;;;0.80;;
1759;SDS011;877;46.266;20.062;2023-08-07T13:41:54;3.57;;;1.00;;
1759;SDS011;877;46.266;20.062;2023-08-07T13:44:20;2.93;;;0.70;;
1759;SDS011;877;46.266;20.062;2023-08-07T13:46:47;2.77;;;0.60;;
1759;SDS011;877;46.266;20.062;2023-08-07T13:49:13;2.60;;;0.70;;
1759;SDS011;877;46.266;20.062;2023-08-07T13:51:42;2.10;;;0.70;;
1759;SDS011;877;46.266;20.062;2023-08-07T13:54:08;5.93;;;0.90;;
1759;SDS011;877;46.266;20.062;2023-08-07T13:56:34;4.50;;;1.90;;
1759;SDS011;877;46.266;20.062;2023-08-07T13:59:00;3.07;;;0.67;;
1759;SDS011;877;46.266;20.062;2023-08-07T14:01:26;2.13;;;0.80;;
1759;SDS011;877;46.266;20.062;2023-08-07T14:03:53;4.63;;;0.70;;
1759;SDS011;877;46.266;20.062;2023-08-07T14:06:19;3.03;;;0.80;;
1759;SDS011;877;46.266;20.062;2023-08-07T14:08:46;2.13;;;0.70;;
1759;SDS011;877;46.266;20.062;2023-08-07T14:11:12;2.50;;;0.80;;
1759;SDS011;877;46.266;20.062;2023-08-07T14:13:39;8.93;;;1.07;;
1759;SDS011;877;46.266;20.062;2023-08-07T14:16:06;4.40;;;1.40;;
1759;SDS011;877;46.266;20.062;2023-08-07T14:18:32;3.83;;;1.13;;
1759;SDS011;877;46.266;20.062;2023-08-07T14:20:58;2.20;;;0.60;;
1759;SDS011;877;46.266;20.062;2023-08-07T14:23:24;2.10;;;0.60;;
1759;SDS011;877;46.266;20.062;2023-08-07T14:25:49;2.20;;;0.60;;
1759;SDS011;877;46.266;20.062;2023-08-07T14:28:16;2.13;;;0.60;;
1759;SDS011;877;46.266;20.062;2023-08-07T14:30:42;2.00;;;0.60;;
1759;SDS011;877;46.266;20.062;2023-08-07T14:33:08;2.20;;;0.70;;
1759;SDS011;877;46.266;20.062;2023-08-07T14:35:34;2.20;;;0.60;;
1759;SDS011;877;46.266;20.062;2023-08-07T14:38:00;2.20;;;0.60;;
1759;SDS011;877;46.266;20.062;2023-08-07T14:40:26;3.40;;;0.60;;
1759;SDS011;877;46.266;20.062;2023-08-07T14:42:53;5.10;;;0.60;;
1759;SDS011;877;46.266;20.062;2023-08-07T14:45:20;5.50;;;0.97;;
1759;SDS011;877;46.266;20.062;2023-08-07T14:47:47;2.30;;;0.60;;
1759;SDS011;877;46.266;20.062;2023-08-07T14:50:13;3.27;;;0.70;;
1759;SDS011;877;46.266;20.062;2023-08-07T14:52:41;2.53;;;0.63;;
1759;SDS011;877;46.266;20.062;2023-08-07T14:55:10;3.83;;;0.80;;
1759;SDS011;877;46.266;20.062;2023-08-07T14:57:36;2.50;;;0.80;;
1759;SDS011;877;46.266;20.062;2023-08-07T15:00:01;3.33;;;1.00;;
1759;SDS011;877;46.266;20.062;2023-08-07T15:02:29;3.23;;;0.90;;
1759;SDS011;877;46.266;20.062;2023-08-07T15:04:57;2.70;;;1.00;;
1759;SDS011;877;46.266;20.062;2023-08-07T15:07:23;2.20;;;0.87;;
1759;SDS011;877;46.266;20.062;2023-08-07T15:09:48;4.13;;;1.07;;
1759;SDS011;877;46.266;20.062;2023-08-07T15:12:15;2.20;;;0.80;;
1759;SDS011;877;46.266;20.062;2023-08-07T15:14:42;2.20;;;0.83;;
1759;SDS011;877;46.266;20.062;2023-08-07T15:17:07;2.20;;;0.70;;
1759;SDS011;877;46.266;20.062;2023-08-07T15:19:33;3.13;;;0.80;;
1759;SDS011;877;46.266;20.062;2023-08-07T15:21:59;3.50;;;0.60;;
1759;SDS011;877;46.266;20.062;2023-08-07T15:24:25;2.40;;;0.73;;